Time;durP1;ratioP1;P1;durP2;ratioP2;P2;SDS_P1;SDS_P2;PMS_P1;PMS_P2;Temp;Humidity;BMP_temperature;BMP_pressure;BME280_temperature;BME280_humidity;BME280_pressure;Samples;Min_cycle;Max_cycle;Signal;HPM_P1;HPM_P2
2023/05/28 00:00:46;;;;;;;;;;;;;;;;;;5085681;28;20288;-79
2023/05/28 00:03:17;;;;;;;;;;;;;;;;;;5090085;28;19974;-79
2023/05/28 00:05:44;;;;;;;;;;;;;;;;;;5066610;28;20011;-79
2023/05/28 00:08:11;;;;;;;;;;;;;;;;;;5066315;28;20003;-79
2023/05/28 00:10:38;;;;;;;;;;;;;;;;;;5084840;28;19924;-79
2023/05/28 00:13:05;;;;;;;;;;;;;;;;;;5071715;28;19924;-78
2023/05/28 00:15:31;;;;;;;;;;;;;;;;;;5073039;28;20359;-80
2023/05/28 00:17:58;;;;;;;;;;;;;;;;;;5073277;28;20364;-79
2023/05/28 00:20:26;;;;;;;;;;;;;;;;;;5071859;28;20023;-79
2023/05/28 00:22:53;;;;;;;;;;;;;;;;;;5070967;28;19932;-79
2023/05/28 00:25:20;;;;;;;;;;;;;;;;;;5062334;28;19925;-79
2023/05/28 00:27:47;;;;;;;;;;;;;;;;;;5075221;28;20345;-77
2023/05/28 00:30:14;;;;;;;;;;;;;;;;;;5072832;28;19968;-78
2023/05/28 00:32:41;;;;;;;;;;;;;;;;;;5072909;28;19947;-77
2023/05/28 00:35:08;;;;;;;;;;;;;;;;;;5065439;28;19928;-77
2023/05/28 00:37:35;;;;;;;;;;;;;;;;;;5068645;28;19931;-77
2023/05/28 00:40:01;;;;;;;;;;;;;;;;;;5072232;28;19931;-78
2023/05/28 00:42:28;;;;;;;;;;;;;;;;;;5074631;28;19928;-76
2023/05/28 00:44:55;;;;;;;;;;;;;;;;;;5072191;28;19935;-77
2023/05/28 00:47:22;;;;;;;;;;;;;;;;;;5072535;28;19963;-78
2023/05/28 00:49:49;;;;;;;;;;;;;;;;;;5073814;28;19924;-77
2023/05/28 00:52:16;;;;;;;;;;;;;;;;;;5082218;28;19971;-77
2023/05/28 00:54:43;;;;;;;;;;;;;;;;;;5074692;28;19928;-77
2023/05/28 00:57:10;;;;;;;;;;;;;;;;;;5071169;28;19924;-77
2023/05/28 00:59:38;;;;;;;;;;;;;;;;;;5068600;28;19924;-76
2023/05/28 01:02:05;;;;;;;;;;;;;;;;;;5072109;28;20387;-77
2023/05/28 01:04:32;;;;;;;;;;;;;;;;;;5066560;28;20295;-77
2023/05/28 01:06:59;;;;;;;;;;;;;;;;;;5084945;28;19931;-77
2023/05/28 01:09:26;;;;;;;;;;;;;;;;;;5089603;28;19934;-77
2023/05/28 01:11:52;;;;;;;;;;;;;;;;;;5070185;28;19924;-77
2023/05/28 01:14:19;;;;;;;;;;;;;;;;;;5071278;28;19925;-77
2023/05/28 01:16:48;;;;;;;;;;;;;;;;;;5074293;28;20420;-77
2023/05/28 01:19:16;;;;;;;;;;;;;;;;;;5068060;28;19974;-78
2023/05/28 01:21:43;;;;;;;;;;;;;;;;;;5089983;28;20003;-78
2023/05/28 01:24:10;;;;;;;;;;;;;;;;;;5074394;28;19974;-78
2023/05/28 01:26:37;;;;;;;;;;;;;;;;;;5095570;28;20306;-78
2023/05/28 01:29:04;;;;;;;;;;;;;;;;;;5076325;28;20294;-78
2023/05/28 01:31:31;;;;;;;;;;;;;;;;;;5073820;28;20977;-80
2023/05/28 01:33:58;;;;;;;;;;;;;;;;;;5081160;28;19931;-79
2023/05/28 01:36:25;;;;;;;;;;;;;;;;;;5076293;28;19931;-79
2023/05/28 01:38:52;;;;;;;;;;;;;;;;;;5064693;28;19925;-79
2023/05/28 01:41:19;;;;;;;;;;;;;;;;;;5070606;28;19931;-79
2023/05/28 01:43:46;;;;;;;;;;;;;;;;;;5079660;28;19925;-79
2023/05/28 01:46:13;;;;;;;;;;;;;;;;;;5075962;28;20698;-78
2023/05/28 01:48:40;;;;;;;;;;;;;;;;;;5079450;28;19930;-78
2023/05/28 01:51:07;;;;;;;;;;;;;;;;;;5090515;28;19931;-78
2023/05/28 01:53:34;;;;;;;;;;;;;;;;;;5090158;28;20104;-78
2023/05/28 01:56:01;;;;;;;;;;;;;;;;;;5077474;28;20019;-79
2023/05/28 01:58:28;;;;;;;;;;;;;;;;;;5088444;28;19978;-79
2023/05/28 02:00:55;;;;;;;;;;;;;;;;;;5076548;28;19935;-79
2023/05/28 02:03:23;;;;;;;;;;;;;;;;;;5071084;28;19924;-79
2023/05/28 02:05:50;;;;;;;;;;;;;;;;;;5081966;28;19932;-79
2023/05/28 02:08:17;;;;;;;;;;;;;;;;;;5074933;28;20019;-80
2023/05/28 02:10:44;;;;;;;;;;;;;;;;;;5074448;28;19931;-79
2023/05/28 02:13:11;;;;;;;;;;;;;;;;;;5074169;28;20452;-79
2023/05/28 02:15:38;;;;;;;;;;;;;;;;;;5088928;28;20374;-79
2023/05/28 02:18:05;;;;;;;;;;;;;;;;;;5066658;28;20353;-79
2023/05/28 02:20:31;;;;;;;;;;;;;;;;;;5064185;28;20379;-78
2023/05/28 02:22:58;;;;;;;;;;;;;;;;;;5074070;28;20306;-78
2023/05/28 02:25:25;;;;;;;;;;;;;;;;;;5074689;28;19967;-79
2023/05/28 02:27:53;;;;;;;;;;;;;;;;;;5073500;28;19968;-79
2023/05/28 02:30:20;;;;;;;;;;;;;;;;;;5073639;28;19924;-78
2023/05/28 02:32:47;;;;;;;;;;;;;;;;;;5071310;28;20383;-78
2023/05/28 02:35:14;;;;;;;;;;;;;;;;;;5057736;28;19924;-78
2023/05/28 02:37:41;;;;;;;;;;;;;;;;;;5054815;28;20019;-78
2023/05/28 02:40:09;;;;;;;;;;;;;;;;;;5068197;28;19925;-78
2023/05/28 02:42:36;;;;;;;;;;;;;;;;;;5084356;28;19979;-79
2023/05/28 02:45:04;;;;;;;;;;;;;;;;;;5072824;28;19932;-79
2023/05/28 02:47:31;;;;;;;;;;;;;;;;;;5072328;28;19925;-79
2023/05/28 02:49:58;;;;;;;;;;;;;;;;;;5074462;28;20003;-79
2023/05/28 02:52:25;;;;;;;;;;;;;;;;;;5074472;28;19931;-79
2023/05/28 02:54:52;;;;;;;;;;;;;;;;;;5075028;28;20415;-79
2023/05/28 02:57:19;;;;;;;;;;;;;;;;;;5075332;28;20356;-78
2023/05/28 02:59:45;;;;;;;;;;;;;;;;;;5085982;28;19974;-78
2023/05/28 03:02:12;;;;;;;;;;;;;;;;;;5057241;28;20015;-79
2023/05/28 03:04:40;;;;;;;;;;;;;;;;;;5069112;28;19976;-79
2023/05/28 03:07:07;;;;;;;;;;;;;;;;;;5083245;28;19928;-79
2023/05/28 03:09:34;;;;;;;;;;;;;;;;;;5083996;28;19943;-79
2023/05/28 03:12:01;;;;;;;;;;;;;;;;;;5082940;28;20019;-79
2023/05/28 03:14:28;;;;;;;;;;;;;;;;;;5078959;28;20003;-79
2023/05/28 03:16:55;;;;;;;;;;;;;;;;;;5071985;28;19925;-79
2023/05/28 03:19:22;;;;;;;;;;;;;;;;;;5080523;28;19924;-78
2023/05/28 03:21:49;;;;;;;;;;;;;;;;;;5085660;28;20434;-79
2023/05/28 03:24:16;;;;;;;;;;;;;;;;;;5078357;28;20290;-80
2023/05/28 03:26:43;;;;;;;;;;;;;;;;;;5091121;28;20007;-79
2023/05/28 03:29:10;;;;;;;;;;;;;;;;;;5082781;28;20289;-80
2023/05/28 03:31:37;;;;;;;;;;;;;;;;;;5092833;28;19924;-78
2023/05/28 03:34:04;;;;;;;;;;;;;;;;;;5066017;28;19976;-80
2023/05/28 03:36:31;;;;;;;;;;;;;;;;;;5073396;28;19929;-78
2023/05/28 03:38:58;;;;;;;;;;;;;;;;;;5072280;28;19924;-79
2023/05/28 03:41:25;;;;;;;;;;;;;;;;;;5071842;28;19924;-77
2023/05/28 03:43:52;;;;;;;;;;;;;;;;;;5071763;28;19925;-78
2023/05/28 03:46:19;;;;;;;;;;;;;;;;;;5072770;28;20022;-77
2023/05/28 03:48:46;;;;;;;;;;;;;;;;;;5072536;28;19936;-78
2023/05/28 03:51:13;;;;;;;;;;;;;;;;;;5071894;28;19925;-78
2023/05/28 03:53:40;;;;;;;;;;;;;;;;;;5073505;28;20011;-78
2023/05/28 03:56:07;;;;;;;;;;;;;;;;;;5094354;28;19971;-77
2023/05/28 03:58:34;;;;;;;;;;;;;;;;;;5084874;28;20027;-78
2023/05/28 04:01:01;;;;;;;;;;;;;;;;;;5077013;28;19931;-77
2023/05/28 04:03:28;;;;;;;;;;;;;;;;;;5073540;28;19951;-78
2023/05/28 04:05:55;;;;;;;;;;;;;;;;;;5076866;28;19970;-78
2023/05/28 04:08:22;;;;;;;;;;;;;;;;;;5088209;28;20292;-79
2023/05/28 04:10:49;;;;;;;;;;;;;;;;;;5085474;28;19924;-79
2023/05/28 04:13:16;;;;;;;;;;;;;;;;;;5084620;28;20027;-80
2023/05/28 04:15:43;;;;;;;;;;;;;;;;;;5077879;28;20026;-77
2023/05/28 04:18:10;;;;;;;;;;;;;;;;;;5066595;28;20389;-79
2023/05/28 04:20:37;;;;;;;;;;;;;;;;;;5071135;28;20366;-78
2023/05/28 04:23:04;;;;;;;;;;;;;;;;;;5072169;28;19938;-78
2023/05/28 04:25:32;;;;;;;;;;;;;;;;;;5091836;28;20395;-78
2023/05/28 04:28:00;;;;;;;;;;;;;;;;;;5075379;28;19947;-78
2023/05/28 04:30:27;;;;;;;;;;;;;;;;;;5071799;28;19979;-79
2023/05/28 04:32:54;;;;;;;;;;;;;;;;;;5072551;28;20019;-79
2023/05/28 04:35:22;;;;;;;;;;;;;;;;;;5072786;28;19928;-79
2023/05/28 04:37:50;;;;;;;;;;;;;;;;;;5071587;28;20003;-78
2023/05/28 04:40:18;;;;;;;;;;;;;;;;;;5069659;28;20582;-79
2023/05/28 04:42:47;;;;;;;;;;;;;;;;;;5071540;28;19924;-79
2023/05/28 04:45:14;;;;;;;;;;;;;;;;;;5072444;28;19931;-79
2023/05/28 04:47:41;;;;;;;;;;;;;;;;;;5074684;28;19970;-78
2023/05/28 04:50:10;;;;;;;;;;;;;;;;;;5089228;28;21350;-77
2023/05/28 04:52:37;;;;;;;;;;;;;;;;;;5082629;28;19925;-77
2023/05/28 04:55:04;;;;;;;;;;;;;;;;;;5088537;28;19935;-77
2023/05/28 04:57:32;;;;;;;;;;;;;;;;;;5092437;28;19928;-77
2023/05/28 04:59:59;;;;;;;;;;;;;;;;;;5094381;28;19989;-78
2023/05/28 05:02:26;;;;;;;;;;;;;;;;;;5081841;28;19924;-78
2023/05/28 05:04:53;;;;;;;;;;;;;;;;;;5078411;28;20022;-80
2023/05/28 05:07:20;;;;;;;;;;;;;;;;;;5073405;28;20027;-77
2023/05/28 05:09:47;;;;;;;;;;;;;;;;;;5076597;28;19932;-79
2023/05/28 05:12:14;;;;;;;;;;;;;;;;;;5079865;28;20022;-81
2023/05/28 05:14:41;;;;;;;;;;;;;;;;;;5078627;28;20019;-79
2023/05/28 05:17:08;;;;;;;;;;;;;;;;;;5083389;28;20018;-80
2023/05/28 05:19:36;;;;;;;;;;;;;;;;;;5095617;28;19924;-77
2023/05/28 05:22:03;;;;;;;;;;;;;;;;;;5083369;28;19936;-77
2023/05/28 05:24:30;;;;;;;;;;;;;;;;;;5073895;28;19928;-78
2023/05/28 05:26:57;;;;;;;;;;;;;;;;;;5074700;28;19925;-79
2023/05/28 05:29:24;;;;;;;;;;;;;;;;;;5079968;28;19932;-78
2023/05/28 05:31:51;;;;;;;;;;;;;;;;;;5068504;28;20399;-77
2023/05/28 05:34:18;;;;;;;;;;;;;;;;;;5071001;28;19979;-77
2023/05/28 05:36:45;;;;;;;;;;;;;;;;;;5081342;28;19946;-77
2023/05/28 05:39:12;;;;;;;;;;;;;;;;;;5072798;28;20017;-77
2023/05/28 05:41:39;;;;;;;;;;;;;;;;;;5082774;28;19931;-77
2023/05/28 05:44:06;;;;;;;;;;;;;;;;;;5063811;28;20023;-78
2023/05/28 05:46:33;;;;;;;;;;;;;;;;;;5071009;28;20022;-77
2023/05/28 05:49:00;;;;;;;;;;;;;;;;;;5080260;28;19943;-78
2023/05/28 05:51:27;;;;;;;;;;;;;;;;;;5087322;28;19931;-78
2023/05/28 05:53:54;;;;;;;;;;;;;;;;;;5074176;28;20015;-78
2023/05/28 05:56:21;;;;;;;;;;;;;;;;;;5075429;28;19925;-77
2023/05/28 05:58:48;;;;;;;;;;;;;;;;;;5074178;28;19931;-77
2023/05/28 06:01:16;;;;;;;;;;;;;;;;;;5075368;28;19967;-78
2023/05/28 06:03:43;;;;;;;;;;;;;;;;;;5072848;28;20307;-76
2023/05/28 06:06:10;;;;;;;;;;;;;;;;;;5077419;28;19925;-72
2023/05/28 06:08:37;;;;;;;;;;;;;;;;;;5062055;28;20023;-71
2023/05/28 06:11:04;;;;;;;;;;;;;;;;;;5074280;28;19934;-73
2023/05/28 06:13:31;;;;;;;;;;;;;;;;;;5064816;28;19925;-71
2023/05/28 06:15:59;;;;;;;;;;;;;;;;;;5054607;28;19972;-72
2023/05/28 06:18:26;;;;;;;;;;;;;;;;;;5073137;28;19925;-73
2023/05/28 06:20:53;;;;;;;;;;;;;;;;;;5072376;28;19967;-72
2023/05/28 06:23:20;;;;;;;;;;;;;;;;;;5071346;28;20039;-72
2023/05/28 06:25:47;;;;;;;;;;;;;;;;;;5065723;28;19931;-72
2023/05/28 06:28:15;;;;;;;;;;;;;;;;;;5072530;28;20298;-71
2023/05/28 06:30:41;;;;;;;;;;;;;;;;;;5069044;28;19932;-71
2023/05/28 06:33:09;;;;;;;;;;;;;;;;;;5070249;28;19931;-71
2023/05/28 06:35:36;;;;;;;;;;;;;;;;;;5074514;28;19928;-70
2023/05/28 06:38:03;;;;;;;;;;;;;;;;;;5071972;28;19928;-71
2023/05/28 06:40:30;;;;;;;;;;;;;;;;;;5072720;28;19974;-73
2023/05/28 06:42:58;;;;;;;;;;;;;;;;;;5070806;28;20015;-74
2023/05/28 06:45:25;;;;;;;;;;;;;;;;;;5083610;28;19974;-76
2023/05/28 06:47:52;;;;;;;;;;;;;;;;;;5070279;28;20064;-75
2023/05/28 06:50:19;;;;;;;;;;;;;;;;;;5073782;28;19928;-74
2023/05/28 06:52:46;;;;;;;;;;;;;;;;;;5072585;28;20026;-75
2023/05/28 06:55:13;;;;;;;;;;;;;;;;;;5067808;28;20058;-75
2023/05/28 06:57:40;;;;;;;;;;;;;;;;;;5072026;28;19943;-75
2023/05/28 07:00:10;;;;;;;;;;;;;;;;;;5073122;28;19930;-74
2023/05/28 07:02:37;;;;;;;;;;;;;;;;;;5067162;28;19940;-74
2023/05/28 07:05:04;;;;;;;;;;;;;;;;;;5069302;28;19963;-75
2023/05/28 07:07:31;;;;;;;;;;;;;;;;;;5063160;28;20011;-75
2023/05/28 07:09:58;;;;;;;;;;;;;;;;;;5058433;28;20388;-78
2023/05/28 07:12:26;;;;;;;;;;;;;;;;;;5070001;28;20544;-79
2023/05/28 07:14:53;;;;;;;;;;;;;;;;;;5071074;28;19947;-78
2023/05/28 07:17:20;;;;;;;;;;;;;;;;;;5066635;28;20257;-79
2023/05/28 07:19:47;;;;;;;;;;;;;;;;;;5070017;28;19938;-79
2023/05/28 07:22:15;;;;;;;;;;;;;;;;;;5086482;28;20022;-80
2023/05/28 07:24:42;;;;;;;;;;;;;;;;;;5083447;28;19924;-80
2023/05/28 07:27:09;;;;;;;;;;;;;;;;;;5073814;28;20011;-80
2023/05/28 07:29:35;;;;;;;;;;;;;;;;;;5059015;28;19939;-81
2023/05/28 07:32:02;;;;;;;;;;;;;;;;;;5074475;28;19935;-75
2023/05/28 07:34:29;;;;;;;;;;;;;;;;;;5075115;28;20038;-81
2023/05/28 07:36:56;;;;;;;;;;;;;;;;;;5077524;28;19924;-79
2023/05/28 07:39:23;;;;;;;;;;;;;;;;;;5074535;28;19931;-77
2023/05/28 07:41:50;;;;;;;;;;;;;;;;;;5068900;28;20027;-78
2023/05/28 07:44:17;;;;;;;;;;;;;;;;;;5079240;28;19970;-77
2023/05/28 07:46:44;;;;;;;;;;;;;;;;;;5071252;28;20389;-77
2023/05/28 07:49:11;;;;;;;;;;;;;;;;;;5066213;28;20417;-78
2023/05/28 07:51:38;;;;;;;;;;;;;;;;;;5067032;28;20042;-78
2023/05/28 07:54:05;;;;;;;;;;;;;;;;;;5070218;28;20015;-79
2023/05/28 07:56:32;;;;;;;;;;;;;;;;;;5069063;28;19974;-76
2023/05/28 07:58:59;;;;;;;;;;;;;;;;;;5071775;28;20077;-76
2023/05/28 08:01:26;;;;;;;;;;;;;;;;;;5063477;28;19932;-77
2023/05/28 08:03:54;;;;;;;;;;;;;;;;;;5063262;28;19963;-77
2023/05/28 08:06:21;;;;;;;;;;;;;;;;;;5065562;28;19928;-78
2023/05/28 08:08:48;;;;;;;;;;;;;;;;;;5067153;28;19933;-78
2023/05/28 08:11:15;;;;;;;;;;;;;;;;;;5065618;28;20019;-78
2023/05/28 08:13:42;;;;;;;;;;;;;;;;;;5068615;28;19924;-77
2023/05/28 08:16:09;;;;;;;;;;;;;;;;;;5063602;28;19925;-75
2023/05/28 08:18:36;;;;;;;;;;;;;;;;;;5076864;28;19925;-75
2023/05/28 08:21:03;;;;;;;;;;;;;;;;;;5065410;28;19924;-76
2023/05/28 08:23:34;;;;;;;;;;;;;;;;;;5069071;28;20031;-78
2023/05/28 08:26:01;;;;;;;;;;;;;;;;;;5065247;28;19931;-77
2023/05/28 08:28:28;;;;;;;;;;;;;;;;;;5071490;28;20454;-76
2023/05/28 08:30:55;;;;;;;;;;;;;;;;;;5073702;28;19924;-77
2023/05/28 08:33:22;;;;;;;;;;;;;;;;;;5063313;28;19928;-77
2023/05/28 08:35:49;;;;;;;;;;;;;;;;;;5075930;28;19925;-78
2023/05/28 08:38:16;;;;;;;;;;;;;;;;;;5068601;28;19925;-77
2023/05/28 08:40:43;;;;;;;;;;;;;;;;;;5070032;28;20430;-77
2023/05/28 08:43:10;;;;;;;;;;;;;;;;;;5066073;28;20490;-76
2023/05/28 08:45:37;;;;;;;;;;;;;;;;;;5069559;28;19970;-77
2023/05/28 08:48:04;;;;;;;;;;;;;;;;;;5066236;28;19929;-77
2023/05/28 08:50:31;;;;;;;;;;;;;;;;;;5071811;28;19966;-78
2023/05/28 08:52:58;;;;;;;;;;;;;;;;;;5075028;28;20076;-78
2023/05/28 08:55:25;;;;;;;;;;;;;;;;;;5072257;28;20027;-78
2023/05/28 08:57:52;;;;;;;;;;;;;;;;;;5067242;28;19931;-77
2023/05/28 09:00:19;;;;;;;;;;;;;;;;;;5083326;28;19925;-77
2023/05/28 09:02:46;;;;;;;;;;;;;;;;;;5075034;28;20023;-77
2023/05/28 09:05:13;;;;;;;;;;;;;;;;;;5072910;28;19991;-78
2023/05/28 09:07:40;;;;;;;;;;;;;;;;;;5068865;28;19925;-76
2023/05/28 09:10:07;;;;;;;;;;;;;;;;;;5060684;28;19950;-76
2023/05/28 09:12:34;;;;;;;;;;;;;;;;;;5071555;28;20011;-77
2023/05/28 09:15:02;;;;;;;;;;;;;;;;;;5072010;28;20302;-78
2023/05/28 09:17:29;;;;;;;;;;;;;;;;;;5082142;28;19924;-77
2023/05/28 09:19:59;;;;;;;;;;;;;;;;;;5076297;28;20015;-78
2023/05/28 09:22:26;;;;;;;;;;;;;;;;;;5073304;28;19954;-77
2023/05/28 09:24:54;;;;;;;;;;;;;;;;;;5054335;28;20280;-79
2023/05/28 09:27:22;;;;;;;;;;;;;;;;;;5059066;28;19940;-77
2023/05/28 09:29:49;;;;;;;;;;;;;;;;;;5072629;28;19925;-77
2023/05/28 09:32:16;;;;;;;;;;;;;;;;;;5065201;28;19979;-78
2023/05/28 09:34:43;;;;;;;;;;;;;;;;;;5063908;28;20013;-78
2023/05/28 09:37:10;;;;;;;;;;;;;;;;;;5066987;28;20024;-77
2023/05/28 09:39:37;;;;;;;;;;;;;;;;;;5054530;28;19925;-78
2023/05/28 09:42:06;;;;;;;;;;;;;;;;;;5069503;28;20019;-77
2023/05/28 09:44:33;;;;;;;;;;;;;;;;;;5060876;28;20294;-77
2023/05/28 09:47:00;;;;;;;;;;;;;;;;;;5064395;28;20048;-76
2023/05/28 09:49:27;;;;;;;;;;;;;;;;;;5065222;28;19924;-80
2023/05/28 09:51:54;;;;;;;;;;;;;;;;;;5081203;28;19931;-76
2023/05/28 09:54:21;;;;;;;;;;;;;;;;;;5068445;28;19935;-77
2023/05/28 09:56:48;;;;;;;;;;;;;;;;;;5081841;28;19924;-77
2023/05/28 09:59:15;;;;;;;;;;;;;;;;;;5086565;28;19938;-76
2023/05/28 10:01:43;;;;;;;;;;;;;;;;;;5074824;28;19931;-77
2023/05/28 10:04:10;;;;;;;;;;;;;;;;;;5067341;28;19933;-76
2023/05/28 10:06:37;;;;;;;;;;;;;;;;;;5077829;28;20341;-77
2023/05/28 10:09:04;;;;;;;;;;;;;;;;;;5069752;28;19982;-76
2023/05/28 10:11:31;;;;;;;;;;;;;;;;;;5075659;28;19924;-75
2023/05/28 10:13:58;;;;;;;;;;;;;;;;;;5067104;28;19939;-76
2023/05/28 10:16:25;;;;;;;;;;;;;;;;;;5075797;28;20022;-76
2023/05/28 10:18:52;;;;;;;;;;;;;;;;;;5070438;28;19928;-74
2023/05/28 10:21:19;;;;;;;;;;;;;;;;;;5070599;28;20292;-78
2023/05/28 10:23:46;;;;;;;;;;;;;;;;;;5066812;28;19928;-79
2023/05/28 10:26:13;;;;;;;;;;;;;;;;;;5071346;28;19924;-81
2023/05/28 10:28:40;;;;;;;;;;;;;;;;;;5064217;28;19932;-81
2023/05/28 10:31:07;;;;;;;;;;;;;;;;;;5065347;28;20507;-82
2023/05/28 10:33:34;;;;;;;;;;;;;;;;;;5066731;28;19970;-82
2023/05/28 10:36:01;;;;;;;;;;;;;;;;;;5072587;28;19973;-81
2023/05/28 10:38:28;;;;;;;;;;;;;;;;;;5076452;28;19924;-83
2023/05/28 10:40:55;;;;;;;;;;;;;;;;;;5079337;28;19932;-82
2023/05/28 10:43:22;;;;;;;;;;;;;;;;;;5071782;28;19999;-81
2023/05/28 10:45:49;;;;;;;;;;;;;;;;;;5068803;28;20019;-84
2023/05/28 10:48:17;;;;;;;;;;;;;;;;;;5072239;28;19996;-82
2023/05/28 10:50:44;;;;;;;;;;;;;;;;;;5069325;28;20287;-83
2023/05/28 10:53:12;;;;;;;;;;;;;;;;;;5074046;28;19931;-83
2023/05/28 10:55:39;;;;;;;;;;;;;;;;;;5068145;28;19924;-79
2023/05/28 10:58:06;;;;;;;;;;;;;;;;;;5076369;28;19924;-78
2023/05/28 11:00:33;;;;;;;;;;;;;;;;;;5076612;28;19931;-77
2023/05/28 11:03:00;;;;;;;;;;;;;;;;;;5064949;28;19946;-78
2023/05/28 11:05:27;;;;;;;;;;;;;;;;;;5072509;28;19970;-80
2023/05/28 11:07:54;;;;;;;;;;;;;;;;;;5066996;28;19924;-78
2023/05/28 11:10:24;;;;;;;;;;;;;;;;;;5069747;28;20286;-78
2023/05/28 11:12:51;;;;;;;;;;;;;;;;;;5073711;28;19982;-77
2023/05/28 11:15:18;;;;;;;;;;;;;;;;;;5070700;28;19925;-77
2023/05/28 11:17:45;;;;;;;;;;;;;;;;;;5073511;28;20276;-77
2023/05/28 11:20:12;;;;;;;;;;;;;;;;;;5081122;28;20011;-78
2023/05/28 11:22:39;;;;;;;;;;;;;;;;;;5070475;28;19932;-78
2023/05/28 11:25:06;;;;;;;;;;;;;;;;;;5071501;28;20261;-79
2023/05/28 11:27:34;;;;;;;;;;;;;;;;;;5072428;28;19979;-78
2023/05/28 11:30:01;;;;;;;;;;;;;;;;;;5079645;28;20019;-78
2023/05/28 11:32:28;;;;;;;;;;;;;;;;;;5070236;28;21452;-77
2023/05/28 11:34:55;;;;;;;;;;;;;;;;;;5082088;28;19980;-78
2023/05/28 11:37:24;;;;;;;;;;;;;;;;;;5090129;28;20585;-78
2023/05/28 11:39:51;;;;;;;;;;;;;;;;;;5068156;28;20027;-79
2023/05/28 11:42:18;;;;;;;;;;;;;;;;;;5081340;28;20306;-79
2023/05/28 11:44:45;;;;;;;;;;;;;;;;;;5070901;28;20027;-76
2023/05/28 11:47:12;;;;;;;;;;;;;;;;;;5078387;28;19963;-77
2023/05/28 11:49:39;;;;;;;;;;;;;;;;;;5063157;28;19976;-79
2023/05/28 11:52:06;;;;;;;;;;;;;;;;;;5067691;28;20024;-79
2023/05/28 11:54:33;;;;;;;;;;;;;;;;;;5076638;28;19928;-79
2023/05/28 11:57:01;;;;;;;;;;;;;;;;;;5060762;28;20007;-79
2023/05/28 11:59:29;;;;;;;;;;;;;;;;;;5073321;28;19970;-80
2023/05/28 12:01:56;;;;;;;;;;;;;;;;;;5084921;28;19977;-78
2023/05/28 12:04:23;;;;;;;;;;;;;;;;;;5084040;28;19928;-78
2023/05/28 12:06:50;;;;;;;;;;;;;;;;;;5070730;28;19928;-78
2023/05/28 12:09:17;;;;;;;;;;;;;;;;;;5070641;28;20007;-77
2023/05/28 12:11:44;;;;;;;;;;;;;;;;;;5080470;28;20379;-78
2023/05/28 12:14:11;;;;;;;;;;;;;;;;;;5076670;28;20359;-77
2023/05/28 12:16:39;;;;;;;;;;;;;;;;;;5070124;28;19924;-77
2023/05/28 12:19:08;;;;;;;;;;;;;;;;;;5079966;28;19931;-78
2023/05/28 12:21:35;;;;;;;;;;;;;;;;;;5069781;28;19924;-78
2023/05/28 12:24:02;;;;;;;;;;;;;;;;;;5068379;28;19938;-77
2023/05/28 12:26:29;;;;;;;;;;;;;;;;;;5086136;28;19924;-77
2023/05/28 12:28:56;;;;;;;;;;;;;;;;;;5088447;28;19924;-78
2023/05/28 12:31:23;;;;;;;;;;;;;;;;;;5064301;28;20015;-79
2023/05/28 12:33:50;;;;;;;;;;;;;;;;;;5059636;28;20070;-78
2023/05/28 12:36:17;;;;;;;;;;;;;;;;;;5070184;28;20028;-78
2023/05/28 12:38:44;;;;;;;;;;;;;;;;;;5077780;28;20022;-78
2023/05/28 12:41:11;;;;;;;;;;;;;;;;;;5079649;28;19933;-78
2023/05/28 12:43:38;;;;;;;;;;;;;;;;;;5082507;28;20027;-77
2023/05/28 12:46:05;;;;;;;;;;;;;;;;;;5065334;28;20039;-77
2023/05/28 12:48:32;;;;;;;;;;;;;;;;;;5058265;28;20015;-78
2023/05/28 12:50:59;;;;;;;;;;;;;;;;;;5070671;28;20391;-78
2023/05/28 12:53:26;;;;;;;;;;;;;;;;;;5078846;28;19931;-77
2023/05/28 12:55:53;;;;;;;;;;;;;;;;;;5075212;28;19971;-77
2023/05/28 12:58:21;;;;;;;;;;;;;;;;;;5071815;28;19932;-80
2023/05/28 13:00:48;;;;;;;;;;;;;;;;;;5073234;28;19978;-79
2023/05/28 13:03:15;;;;;;;;;;;;;;;;;;5052788;28;19996;-79
2023/05/28 13:05:41;;;;;;;;;;;;;;;;;;5060500;28;19925;-79
2023/05/28 13:08:08;;;;;;;;;;;;;;;;;;5065415;28;19924;-79
2023/05/28 13:10:35;;;;;;;;;;;;;;;;;;5071692;28;20019;-78
2023/05/28 13:13:02;;;;;;;;;;;;;;;;;;5052282;28;19929;-78
2023/05/28 13:15:29;;;;;;;;;;;;;;;;;;5070849;28;19925;-78
2023/05/28 13:17:57;;;;;;;;;;;;;;;;;;5068877;28;19931;-79
2023/05/28 13:20:25;;;;;;;;;;;;;;;;;;5075532;28;20034;-78
2023/05/28 13:22:52;;;;;;;;;;;;;;;;;;5074845;28;20057;-79
2023/05/28 13:25:20;;;;;;;;;;;;;;;;;;5075365;28;19964;-79
2023/05/28 13:27:47;;;;;;;;;;;;;;;;;;5068523;28;19924;-74
2023/05/28 13:30:14;;;;;;;;;;;;;;;;;;5067339;28;20470;-73
2023/05/28 13:32:41;;;;;;;;;;;;;;;;;;5063331;28;20065;-73
2023/05/28 13:35:09;;;;;;;;;;;;;;;;;;5060347;28;19983;-73
2023/05/28 13:37:37;;;;;;;;;;;;;;;;;;5068448;28;19978;-73
2023/05/28 13:40:07;;;;;;;;;;;;;;;;;;5075722;28;19928;-73
2023/05/28 13:42:34;;;;;;;;;;;;;;;;;;5066293;28;20363;-73
2023/05/28 13:45:01;;;;;;;;;;;;;;;;;;5090632;28;19932;-72
2023/05/28 13:47:28;;;;;;;;;;;;;;;;;;5074959;28;19975;-72
2023/05/28 13:49:55;;;;;;;;;;;;;;;;;;5071133;28;19929;-73
2023/05/28 13:52:23;;;;;;;;;;;;;;;;;;5057148;28;19928;-73
2023/05/28 13:54:50;;;;;;;;;;;;;;;;;;5068745;28;19924;-73
2023/05/28 13:57:19;;;;;;;;;;;;;;;;;;5075796;28;19951;-73
2023/05/28 13:59:46;;;;;;;;;;;;;;;;;;5074381;28;20003;-73
2023/05/28 14:02:13;;;;;;;;;;;;;;;;;;5069493;28;19928;-73
2023/05/28 14:04:40;;;;;;;;;;;;;;;;;;5069518;28;19925;-72
2023/05/28 14:07:08;;;;;;;;;;;;;;;;;;5074194;28;19929;-73
2023/05/28 14:09:36;;;;;;;;;;;;;;;;;;5072356;28;19925;-72
2023/05/28 14:12:03;;;;;;;;;;;;;;;;;;5072036;28;19964;-74
2023/05/28 14:14:30;;;;;;;;;;;;;;;;;;5071982;28;19925;-72
2023/05/28 14:16:57;;;;;;;;;;;;;;;;;;5073492;28;20023;-72
2023/05/28 14:19:24;;;;;;;;;;;;;;;;;;5074587;28;19924;-73
2023/05/28 14:21:51;;;;;;;;;;;;;;;;;;5073038;28;19924;-73
2023/05/28 14:24:18;;;;;;;;;;;;;;;;;;5073367;28;20327;-74
2023/05/28 14:26:45;;;;;;;;;;;;;;;;;;5061354;28;19931;-72
2023/05/28 14:29:12;;;;;;;;;;;;;;;;;;5066109;28;19939;-74
2023/05/28 14:31:39;;;;;;;;;;;;;;;;;;5067276;28;20039;-73
2023/05/28 14:34:06;;;;;;;;;;;;;;;;;;5066821;28;19980;-73
2023/05/28 14:36:33;;;;;;;;;;;;;;;;;;5072937;28;19935;-74
2023/05/28 14:39:00;;;;;;;;;;;;;;;;;;5070501;28;20015;-73
2023/05/28 14:41:27;;;;;;;;;;;;;;;;;;5077709;28;19979;-74
2023/05/28 14:43:54;;;;;;;;;;;;;;;;;;5071802;28;19928;-73
2023/05/28 14:46:21;;;;;;;;;;;;;;;;;;5071363;28;19924;-73
2023/05/28 14:48:48;;;;;;;;;;;;;;;;;;5073239;28;20007;-73
2023/05/28 14:51:15;;;;;;;;;;;;;;;;;;5070511;28;20018;-72
2023/05/28 14:53:42;;;;;;;;;;;;;;;;;;5067896;28;19967;-73
2023/05/28 14:56:09;;;;;;;;;;;;;;;;;;5072140;28;19924;-73
2023/05/28 14:58:36;;;;;;;;;;;;;;;;;;5073205;28;19932;-73
2023/05/28 15:01:03;;;;;;;;;;;;;;;;;;5065076;28;20360;-73
2023/05/28 15:03:30;;;;;;;;;;;;;;;;;;5070108;28;20007;-73
2023/05/28 15:05:57;;;;;;;;;;;;;;;;;;5077380;28;19951;-74
2023/05/28 15:08:24;;;;;;;;;;;;;;;;;;5076769;28;19946;-74
2023/05/28 15:10:52;;;;;;;;;;;;;;;;;;5074765;28;19924;-73
2023/05/28 15:13:18;;;;;;;;;;;;;;;;;;5070441;28;19924;-73
2023/05/28 15:15:45;;;;;;;;;;;;;;;;;;5066695;28;19924;-72
2023/05/28 15:18:12;;;;;;;;;;;;;;;;;;5074132;28;20021;-74
2023/05/28 15:20:39;;;;;;;;;;;;;;;;;;5065718;28;20427;-72
2023/05/28 15:23:06;;;;;;;;;;;;;;;;;;5057004;28;19924;-72
2023/05/28 15:25:33;;;;;;;;;;;;;;;;;;5068883;28;20012;-72
2023/05/28 15:28:00;;;;;;;;;;;;;;;;;;5064173;28;19931;-73
2023/05/28 15:30:27;;;;;;;;;;;;;;;;;;5059867;28;20287;-72
2023/05/28 15:32:57;;;;;;;;;;;;;;;;;;5065455;28;20298;-73
2023/05/28 15:35:24;;;;;;;;;;;;;;;;;;5061134;28;19928;-73
2023/05/28 15:37:51;;;;;;;;;;;;;;;;;;5072084;28;19931;-72
2023/05/28 15:40:18;;;;;;;;;;;;;;;;;;5058416;28;20016;-72
2023/05/28 15:42:45;;;;;;;;;;;;;;;;;;5066867;28;20007;-73
2023/05/28 15:45:12;;;;;;;;;;;;;;;;;;5069824;28;20447;-74
2023/05/28 15:47:39;;;;;;;;;;;;;;;;;;5071808;28;20460;-72
2023/05/28 15:50:06;;;;;;;;;;;;;;;;;;5072046;28;19925;-73
2023/05/28 15:52:33;;;;;;;;;;;;;;;;;;5069607;28;19971;-72
2023/05/28 15:55:01;;;;;;;;;;;;;;;;;;5068328;28;20400;-73
2023/05/28 15:57:28;;;;;;;;;;;;;;;;;;5074392;28;20012;-73
2023/05/28 15:59:55;;;;;;;;;;;;;;;;;;5082953;28;20007;-73
2023/05/28 16:02:22;;;;;;;;;;;;;;;;;;5081768;28;19959;-73
2023/05/28 16:04:49;;;;;;;;;;;;;;;;;;5068411;28;20015;-78
2023/05/28 16:07:16;;;;;;;;;;;;;;;;;;5073150;28;19959;-79
2023/05/28 16:09:43;;;;;;;;;;;;;;;;;;5065261;28;19964;-80
2023/05/28 16:12:10;;;;;;;;;;;;;;;;;;5067348;28;19924;-80
2023/05/28 16:14:37;;;;;;;;;;;;;;;;;;5061460;28;20016;-80
2023/05/28 16:17:04;;;;;;;;;;;;;;;;;;5068095;28;19931;-80
2023/05/28 16:19:30;;;;;;;;;;;;;;;;;;5075885;28;20011;-80
2023/05/28 16:21:57;;;;;;;;;;;;;;;;;;5069621;28;20015;-80
2023/05/28 16:24:24;;;;;;;;;;;;;;;;;;5067864;28;20433;-80
2023/05/28 16:26:51;;;;;;;;;;;;;;;;;;5066241;28;20359;-77
2023/05/28 16:29:18;;;;;;;;;;;;;;;;;;5067164;28;19964;-79
2023/05/28 16:31:47;;;;;;;;;;;;;;;;;;5062305;28;19970;-78
2023/05/28 16:34:13;;;;;;;;;;;;;;;;;;5062027;28;19924;-78
2023/05/28 16:36:41;;;;;;;;;;;;;;;;;;5062577;28;20427;-79
2023/05/28 16:39:08;;;;;;;;;;;;;;;;;;5067048;28;20042;-80
2023/05/28 16:41:35;;;;;;;;;;;;;;;;;;5062147;28;19928;-78
2023/05/28 16:44:02;;;;;;;;;;;;;;;;;;5070062;28;20015;-78